createdAt,value
2022-11-16T00:00:36.403Z,73.1429
2022-11-16T00:01:36.447Z,73.0714
2022-11-16T00:02:36.529Z,73.2143
2022-11-16T00:03:36.496Z,73.2143
2022-11-16T00:04:36.539Z,73.1429
2022-11-16T00:05:36.559Z,73.1429
2022-11-16T00:06:36.592Z,73.3571
2022-11-16T00:07:36.774Z,73.2143
2022-11-16T00:08:36.741Z,73.1429
2022-11-16T00:09:36.704Z,73.1429
2022-11-16T00:10:36.728Z,73.2857
2022-11-16T00:11:36.748Z,73.2143
2022-11-16T00:12:36.773Z,73.1429
2022-11-16T00:13:36.805Z,73.1429
2022-11-16T00:14:36.831Z,73.0714
2022-11-16T00:15:36.856Z,73.1429
2022-11-16T00:16:36.884Z,73.0714
2022-11-16T00:17:36.932Z,73.0714
2022-11-16T00:18:36.953Z,73.0714
2022-11-16T00:19:36.981Z,73.2143
2022-11-16T00:20:37.017Z,73.1429
2022-11-16T00:21:37.039Z,73.2143
2022-11-16T00:22:37.071Z,73.1429
2022-11-16T00:23:37.122Z,73.1429
2022-11-16T00:24:37.135Z,73.1429
2022-11-16T00:25:37.158Z,73.2143
2022-11-16T00:26:37.208Z,73.2857
2022-11-16T00:27:37.226Z,73.1429
2022-11-16T00:28:37.271Z,73.1429
2022-11-16T00:29:37.292Z,73.1429
2022-11-16T00:30:37.340Z,73.2143
2022-11-16T00:31:37.372Z,73.4286
2022-11-16T00:32:37.389Z,73.3571
2022-11-16T00:33:37.423Z,73.2857
2022-11-16T00:34:37.465Z,73.2143
2022-11-16T00:35:37.482Z,73.1429
2022-11-16T00:36:37.517Z,73.0714
2022-11-16T00:37:37.571Z,73
2022-11-16T00:38:37.581Z,73
2022-11-16T00:39:37.603Z,73.0714
2022-11-16T00:40:37.640Z,73.0714
2022-11-16T00:41:37.667Z,73.1429
2022-11-16T00:42:37.725Z,73
2022-11-16T00:43:37.732Z,73.0714
2022-11-16T00:44:37.767Z,72.8571
2022-11-16T00:45:37.792Z,72.7857
2022-11-16T00:46:37.828Z,72.9286
2022-11-16T00:47:37.873Z,72.9286
2022-11-16T00:48:37.898Z,72.9286
2022-11-16T00:49:37.930Z,73
2022-11-16T00:50:37.959Z,72.9286
2022-11-16T00:51:37.983Z,72.8571
2022-11-16T00:52:38.020Z,72.7857
2022-11-16T00:53:38.052Z,72.9286
2022-11-16T00:54:38.089Z,72.7857
2022-11-16T00:55:38.106Z,72.5714
2022-11-16T00:56:38.152Z,72.4286
2022-11-16T00:57:38.179Z,72.4286
2022-11-16T00:58:38.203Z,72.4286
2022-11-16T00:59:38.232Z,72.5
2022-11-16T01:00:38.272Z,72.6429
2022-11-16T01:01:38.357Z,72.6429
2022-11-16T01:02:38.332Z,72.7857
2022-11-16T01:03:38.349Z,72.7857
2022-11-16T01:04:38.383Z,72.8571
2022-11-16T01:05:38.413Z,72.7857
2022-11-16T01:06:38.441Z,72.7857
2022-11-16T01:07:38.471Z,72.7857
2022-11-16T01:08:38.497Z,72.7143
2022-11-16T01:09:38.522Z,72.6429
2022-11-16T01:10:38.547Z,72.6429
2022-11-16T01:11:38.596Z,72.6429
2022-11-16T01:12:38.614Z,72.5714
2022-11-16T01:13:38.648Z,72.5714
2022-11-16T01:14:38.673Z,72.6429
2022-11-16T01:15:38.715Z,72.7143
2022-11-16T01:16:38.740Z,72.7143
2022-11-16T01:17:38.766Z,72.7857
2022-11-16T01:18:38.795Z,72.7857
2022-11-16T01:19:38.819Z,72.7857
2022-11-16T01:20:38.851Z,72.7857
2022-11-16T01:21:38.874Z,72.7857
2022-11-16T01:22:38.913Z,72.7857
2022-11-16T01:23:38.943Z,72.7143
2022-11-16T01:24:38.964Z,72.7143
2022-11-16T01:25:38.998Z,72.7143
2022-11-16T01:26:39.028Z,72.7143
2022-11-16T01:27:39.064Z,72.7857
2022-11-16T01:28:39.093Z,72.9286
2022-11-16T01:29:39.134Z,73
2022-11-16T01:30:39.158Z,73
2022-11-16T01:31:39.183Z,72.9286
2022-11-16T01:32:39.210Z,72.9286
2022-11-16T01:33:39.246Z,72.8571
2022-11-16T01:34:39.284Z,72.7857
2022-11-16T01:35:39.308Z,72.7857
2022-11-16T01:36:39.348Z,72.7857
2022-11-16T01:37:39.379Z,72.7857
2022-11-16T01:38:39.405Z,72.7857
2022-11-16T01:39:39.438Z,72.7143
2022-11-16T01:40:39.469Z,72.7143
2022-11-16T01:41:39.507Z,72.7857
2022-11-16T01:42:39.538Z,72.8571
2022-11-16T01:43:39.571Z,72.9286
2022-11-16T01:44:39.600Z,72.9286
2022-11-16T01:45:39.638Z,72.9286
2022-11-16T01:46:39.668Z,72.8571
2022-11-16T01:47:39.697Z,72.9286
2022-11-16T01:48:39.789Z,73
2022-11-16T01:49:39.751Z,73
2022-11-16T01:50:39.786Z,73.0714
2022-11-16T01:51:39.813Z,73.0714
2022-11-16T01:52:39.847Z,73.1429
2022-11-16T01:53:39.867Z,73.2143
2022-11-16T01:54:39.906Z,73.2143
2022-11-16T01:55:39.938Z,73.2857
2022-11-16T01:56:39.977Z,73.2857
2022-11-16T01:57:40.005Z,73.3571
2022-11-16T01:58:40.032Z,73.3571
2022-11-16T01:59:40.061Z,73.4286
2022-11-16T02:00:40.083Z,73.5
2022-11-16T02:01:40.176Z,73.5714
2022-11-16T02:02:40.148Z,73.5714
2022-11-16T02:03:40.174Z,73.5714
2022-11-16T02:04:40.203Z,73.5714
2022-11-16T02:05:40.231Z,73.5714
2022-11-16T02:06:40.265Z,73.6429
2022-11-16T02:07:40.299Z,73.6429
2022-11-16T02:08:40.332Z,73.6429
2022-11-16T02:09:40.362Z,73.6429
2022-11-16T02:10:40.388Z,73.7143
2022-11-16T02:11:40.420Z,73.7143
2022-11-16T02:12:40.451Z,73.7143
2022-11-16T02:13:40.487Z,73.7857
2022-11-16T02:14:40.516Z,73.7857
2022-11-16T02:15:40.542Z,73.8571
2022-11-16T02:16:40.576Z,73.8571
2022-11-16T02:17:40.612Z,73.8571
2022-11-16T02:18:40.635Z,73.8571
2022-11-16T02:19:40.663Z,73.7857
2022-11-16T02:20:40.695Z,73.8571
2022-11-16T02:21:40.721Z,73.8571
2022-11-16T02:22:40.761Z,73.9286
2022-11-16T02:23:40.784Z,73.9286
2022-11-16T02:24:40.826Z,74
2022-11-16T02:25:40.847Z,74
2022-11-16T02:26:40.878Z,74.0714
2022-11-16T02:27:40.905Z,74.1429
2022-11-16T02:28:40.956Z,74.2143
2022-11-16T02:29:40.977Z,74.2143
2022-11-16T02:30:41.008Z,74.2143
2022-11-16T02:31:41.036Z,74.2857
2022-11-16T02:32:41.069Z,74.2857
2022-11-16T02:33:41.100Z,74.2857
2022-11-16T02:34:41.133Z,74.2857
2022-11-16T02:35:41.174Z,74.2857
2022-11-16T02:36:41.207Z,74.2857
2022-11-16T02:37:41.225Z,74.2857
2022-11-16T02:38:41.261Z,74.2857
2022-11-16T02:39:41.293Z,74.2857
2022-11-16T02:40:41.320Z,74.2857
2022-11-16T02:41:41.349Z,74.2857
2022-11-16T02:42:41.382Z,74.2857
2022-11-16T02:43:41.409Z,74.3571
2022-11-16T02:44:41.450Z,74.3571
2022-11-16T02:45:41.469Z,74.2857
2022-11-16T02:46:41.481Z,74.2143
2022-11-16T02:47:41.513Z,74.2143
2022-11-16T02:48:41.542Z,74.2143
2022-11-16T02:49:41.576Z,74.2143
2022-11-16T02:50:41.606Z,74.1429
2022-11-16T02:51:41.643Z,74.2143
2022-11-16T02:52:41.663Z,74.2143
2022-11-16T02:53:41.692Z,74.2143
2022-11-16T02:54:41.723Z,74.2143
2022-11-16T02:55:41.767Z,74.2857
2022-11-16T02:56:41.794Z,74.2857
2022-11-16T02:57:41.824Z,74.2857
2022-11-16T02:58:41.844Z,74.2857
2022-11-16T02:59:41.868Z,74.2857
2022-11-16T03:00:41.974Z,74.2857
2022-11-16T03:01:41.934Z,74.3571
2022-11-16T03:02:41.959Z,74.3571
2022-11-16T03:03:41.986Z,74.3571
2022-11-16T03:04:42.021Z,74.4286
2022-11-16T03:05:42.044Z,74.5
2022-11-16T03:06:42.075Z,74.5
2022-11-16T03:07:42.096Z,74.5714
2022-11-16T03:08:42.133Z,74.5714
2022-11-16T03:09:42.173Z,74.5714
2022-11-16T03:10:42.199Z,74.6429
2022-11-16T03:11:42.236Z,74.7143
2022-11-16T03:12:42.268Z,74.7143
2022-11-16T03:13:42.301Z,74.7143
2022-11-16T03:14:42.343Z,74.7143
2022-11-16T03:15:42.372Z,74.7143
2022-11-16T03:16:42.408Z,74.7143
2022-11-16T03:17:42.448Z,74.7857
2022-11-16T03:18:42.471Z,74.7857
2022-11-16T03:19:42.509Z,74.7857
2022-11-16T03:20:42.544Z,74.8571
2022-11-16T03:21:42.579Z,74.7857
2022-11-16T03:22:42.596Z,74.7857
2022-11-16T03:23:42.631Z,74.7143
2022-11-16T03:24:42.656Z,74.7143
2022-11-16T03:25:42.680Z,74.6429
2022-11-16T03:26:42.708Z,74.6429
2022-11-16T03:27:42.748Z,74.6429
2022-11-16T03:28:42.781Z,74.7143
2022-11-16T03:29:42.810Z,74.7143
2022-11-16T03:30:42.851Z,74.6429
2022-11-16T03:31:42.879Z,74.6429
2022-11-16T03:32:42.912Z,74.6429
2022-11-16T03:33:42.939Z,74.6429
2022-11-16T03:34:42.964Z,74.6429
2022-11-16T03:35:42.998Z,74.7143
2022-11-16T03:36:43.027Z,74.7143
2022-11-16T03:37:43.059Z,74.7143
2022-11-16T03:38:43.093Z,74.6429
2022-11-16T03:39:43.125Z,74.6429
2022-11-16T03:40:43.152Z,74.5714
2022-11-16T03:41:43.183Z,74.5714
2022-11-16T03:42:43.212Z,74.5714
2022-11-16T03:43:43.248Z,74.6429
2022-11-16T03:44:43.268Z,74.5714
2022-11-16T03:45:43.301Z,74.5714
2022-11-16T03:46:43.333Z,74.5714
2022-11-16T03:47:43.369Z,74.5714
2022-11-16T03:48:43.392Z,74.6429
2022-11-16T03:49:43.427Z,74.6429
2022-11-16T03:50:43.459Z,74.6429
2022-11-16T03:51:43.482Z,74.5714
2022-11-16T03:52:43.511Z,74.5714
2022-11-16T03:53:43.549Z,74.5
2022-11-16T03:54:43.583Z,74.5
2022-11-16T03:55:49.489Z,74.5714
2022-11-16T03:56:43.659Z,74.5714
2022-11-16T03:57:43.687Z,74.5714
2022-11-16T03:58:43.708Z,74.6429
2022-11-16T03:59:43.752Z,74.7143
2022-11-16T04:00:43.815Z,74.7143
2022-11-16T04:01:45.062Z,74.7857
2022-11-16T04:02:43.828Z,74.7857
2022-11-16T04:03:43.863Z,74.7143
2022-11-16T04:04:43.888Z,74.6429
2022-11-16T04:05:43.924Z,74.6429
2022-11-16T04:06:43.953Z,74.6429
2022-11-16T04:07:43.984Z,74.6429
2022-11-16T04:08:44.016Z,74.6429
2022-11-16T04:09:44.048Z,74.6429
2022-11-16T04:10:44.085Z,74.6429
2022-11-16T04:11:44.114Z,74.6429
2022-11-16T04:12:44.146Z,74.7143
2022-11-16T04:13:44.170Z,74.6429
2022-11-16T04:14:44.197Z,74.7143
2022-11-16T04:15:44.234Z,74.7143
2022-11-16T04:16:44.249Z,74.6429
2022-11-16T04:17:44.289Z,74.6429
2022-11-16T04:18:44.315Z,74.5
2022-11-16T04:19:44.347Z,74.5
2022-11-16T04:20:44.383Z,74.4286
2022-11-16T04:21:44.411Z,74.4286
2022-11-16T04:22:44.435Z,74.3571
2022-11-16T04:23:44.476Z,74.4286
2022-11-16T04:24:44.495Z,74.4286
2022-11-16T04:25:44.524Z,74.4286
2022-11-16T04:26:44.551Z,74.5
2022-11-16T04:27:44.585Z,74.5
2022-11-16T04:28:44.608Z,74.5
2022-11-16T04:29:44.644Z,74.5
2022-11-16T04:30:44.670Z,74.5
2022-11-16T04:31:44.708Z,74.5
2022-11-16T04:32:44.733Z,74.5
2022-11-16T04:33:44.761Z,74.4286
2022-11-16T04:34:44.791Z,74.4286
2022-11-16T04:35:44.828Z,74.5
2022-11-16T04:36:44.861Z,74.4286
2022-11-16T04:37:44.894Z,74.4286
2022-11-16T04:38:44.934Z,74.4286
2022-11-16T04:39:44.956Z,74.4286
2022-11-16T04:40:44.988Z,74.4286
2022-11-16T04:41:45.022Z,74.5
2022-11-16T04:42:45.040Z,74.5714
2022-11-16T04:43:45.073Z,74.6429
2022-11-16T04:44:45.113Z,74.6429
2022-11-16T04:45:45.141Z,74.6429
2022-11-16T04:46:45.173Z,74.6429
2022-11-16T04:47:45.205Z,74.7143
2022-11-16T04:48:45.244Z,74.7143
2022-11-16T04:49:45.271Z,74.6429
2022-11-16T04:50:45.299Z,74.7143
2022-11-16T04:51:45.334Z,74.7143
2022-11-16T04:52:45.363Z,74.7857
2022-11-16T04:53:45.403Z,74.8571
2022-11-16T04:54:45.437Z,74.9286
2022-11-16T04:55:45.474Z,74.9286
2022-11-16T04:56:45.500Z,74.9286
2022-11-16T04:57:45.539Z,75
2022-11-16T04:58:45.566Z,75
2022-11-16T04:59:45.587Z,75
2022-11-16T05:00:45.611Z,75
2022-11-16T05:01:45.724Z,75.0714
2022-11-16T05:02:45.677Z,75.0714
2022-11-16T05:03:45.705Z,75.1429
2022-11-16T05:04:45.735Z,75.1429
2022-11-16T05:05:45.761Z,75.2143
2022-11-16T05:06:45.795Z,75.2143
2022-11-16T05:07:45.832Z,75.2143
2022-11-16T05:08:45.859Z,75.2143
2022-11-16T05:09:45.894Z,75.2143
2022-11-16T05:10:45.932Z,75.2143
2022-11-16T05:11:45.964Z,75.2143
2022-11-16T05:12:45.994Z,75.2857
2022-11-16T05:13:46.027Z,75.2143
2022-11-16T05:14:46.059Z,75.2857
2022-11-16T05:15:46.086Z,75.2857
2022-11-16T05:16:46.115Z,75.3571
2022-11-16T05:17:46.155Z,75.3571
2022-11-16T05:18:46.187Z,75.3571
2022-11-16T05:19:46.225Z,75.3571
2022-11-16T05:20:46.265Z,75.4286
2022-11-16T05:21:46.290Z,75.4286
2022-11-16T05:22:46.338Z,75.4286
2022-11-16T05:23:46.351Z,75.4286
2022-11-16T05:24:46.361Z,75.4286
2022-11-16T05:25:46.398Z,75.4286
2022-11-16T05:26:46.430Z,75.3571
2022-11-16T05:27:46.455Z,75.3571
2022-11-16T05:28:46.486Z,75.3571
2022-11-16T05:29:46.526Z,75.4286
2022-11-16T05:30:46.550Z,75.4286
2022-11-16T05:31:46.587Z,75.4286
2022-11-16T05:32:46.617Z,75.4286
2022-11-16T05:33:46.643Z,75.5
2022-11-16T05:34:46.672Z,75.5
2022-11-16T05:35:46.713Z,75.5714
2022-11-16T05:36:46.737Z,75.5714
2022-11-16T05:37:46.770Z,75.6429
2022-11-16T05:38:46.797Z,75.5714
2022-11-16T05:39:46.828Z,75.5714
2022-11-16T05:40:46.861Z,75.5714
2022-11-16T05:41:46.905Z,75.6429
2022-11-16T05:42:46.932Z,75.5714
2022-11-16T05:43:46.967Z,75.5714
2022-11-16T05:44:47.002Z,75.5714
2022-11-16T05:45:47.041Z,75.5714
2022-11-16T05:46:47.078Z,75.5714
2022-11-16T05:47:47.102Z,75.5714
2022-11-16T05:48:47.128Z,75.5714
2022-11-16T05:49:47.166Z,75.5714
2022-11-16T05:50:47.188Z,75.5
2022-11-16T05:51:47.217Z,75.5714
2022-11-16T05:52:47.251Z,75.6429
2022-11-16T05:53:47.278Z,75.6429
2022-11-16T05:54:47.310Z,75.7143
2022-11-16T05:55:47.414Z,75.7143
2022-11-16T05:56:47.370Z,75.7857
2022-11-16T05:57:47.400Z,75.7857
2022-11-16T05:58:47.427Z,75.7857
2022-11-16T05:59:47.447Z,75.7857
2022-11-16T06:00:47.485Z,75.7857
2022-11-16T06:01:47.510Z,75.7857
2022-11-16T06:02:47.573Z,75.7857
2022-11-16T06:03:47.566Z,75.7857
2022-11-16T06:04:47.587Z,75.8571
2022-11-16T06:05:47.624Z,75.9286
2022-11-16T06:06:47.685Z,76
2022-11-16T06:07:47.690Z,76
2022-11-16T06:08:47.712Z,76
2022-11-16T06:09:47.742Z,76.0714
2022-11-16T06:10:47.774Z,76.0714
2022-11-16T06:11:47.799Z,76.0714
2022-11-16T06:12:47.832Z,76.0714
2022-11-16T06:13:47.861Z,76.1429
2022-11-16T06:14:47.899Z,76.1429
2022-11-16T06:15:53.200Z,76.1429
2022-11-16T06:16:47.976Z,76.1429
2022-11-16T06:17:48.011Z,76.1429
2022-11-16T06:18:48.045Z,76.1429
2022-11-16T06:19:48.078Z,76.1429
2022-11-16T06:20:48.107Z,76.2143
2022-11-16T06:21:48.139Z,76.1429
2022-11-16T06:22:48.178Z,76.1429
2022-11-16T06:23:48.201Z,76.1429
2022-11-16T06:24:48.233Z,76.1429
2022-11-16T06:25:48.255Z,76.1429
2022-11-16T06:26:48.284Z,76.1429
2022-11-16T06:27:48.313Z,76.0714
2022-11-16T06:28:48.345Z,76
2022-11-16T06:29:48.376Z,76
2022-11-16T06:30:48.405Z,76
2022-11-16T06:31:48.438Z,76.0714
2022-11-16T06:32:48.480Z,76.1429
2022-11-16T06:33:48.516Z,76.0714
2022-11-16T06:34:48.536Z,76.1429
2022-11-16T06:35:48.563Z,76.1429
2022-11-16T06:36:48.596Z,76.1429
2022-11-16T06:37:48.631Z,76.1429
2022-11-16T06:38:48.650Z,76.1429
2022-11-16T06:39:48.687Z,76.1429
2022-11-16T06:40:48.719Z,76.0714
2022-11-16T06:41:48.752Z,76.0714
2022-11-16T06:42:48.772Z,76.1429
2022-11-16T06:43:48.817Z,76.1429
2022-11-16T06:44:48.840Z,76.1429
2022-11-16T06:45:48.879Z,76.1429
2022-11-16T06:46:48.913Z,76.1429
2022-11-16T06:47:48.945Z,76.2143
2022-11-16T06:48:48.973Z,76.2143
2022-11-16T06:49:48.993Z,76.1429
2022-11-16T06:50:49.045Z,76.1429
2022-11-16T06:51:49.060Z,76.1429
2022-11-16T06:52:49.079Z,76.1429
2022-11-16T06:53:49.108Z,76.0714
2022-11-16T06:54:49.146Z,76.0714
2022-11-16T06:55:49.176Z,76
2022-11-16T06:56:49.199Z,76
2022-11-16T06:57:49.237Z,76.0714
2022-11-16T06:58:53.188Z,76
2022-11-16T06:59:49.299Z,76
2022-11-16T07:00:49.351Z,76.0714
2022-11-16T07:01:49.420Z,76
2022-11-16T07:02:49.391Z,76
2022-11-16T07:03:49.420Z,75.9286
2022-11-16T07:04:49.458Z,75.8571
2022-11-16T07:05:49.492Z,75.8571
2022-11-16T07:06:49.583Z,75.8571
2022-11-16T07:07:49.560Z,75.7857
2022-11-16T07:08:49.585Z,75.7857
2022-11-16T07:09:49.616Z,75.7143
2022-11-16T07:10:49.648Z,75.6429
2022-11-16T07:11:49.674Z,75.6429
2022-11-16T07:12:49.708Z,75.6429
2022-11-16T07:13:49.743Z,75.6429
2022-11-16T07:14:49.764Z,75.6429
2022-11-16T07:15:49.793Z,75.6429
2022-11-16T07:16:52.621Z,75.5714
2022-11-16T07:17:49.856Z,75.5
2022-11-16T07:18:49.878Z,75.4286
2022-11-16T07:19:49.912Z,75.4286
2022-11-16T07:20:49.943Z,75.4286
2022-11-16T07:21:49.971Z,75.4286
2022-11-16T07:22:50.001Z,75.4286
2022-11-16T07:23:50.030Z,75.4286
2022-11-16T07:24:50.058Z,75.3571
2022-11-16T07:25:50.091Z,75.4286
2022-11-16T07:26:50.119Z,75.4286
2022-11-16T07:27:50.157Z,75.4286
2022-11-16T07:28:50.198Z,75.4286
2022-11-16T07:29:50.217Z,75.4286
2022-11-16T07:30:50.257Z,75.4286
2022-11-16T07:31:50.279Z,75.3571
2022-11-16T07:32:50.313Z,75.3571
2022-11-16T07:33:50.341Z,75.3571
2022-11-16T07:34:50.381Z,75.3571
2022-11-16T07:35:50.411Z,75.3571
2022-11-16T07:36:50.440Z,75.3571
2022-11-16T07:37:50.470Z,75.3571
2022-11-16T07:38:50.491Z,75.2857
2022-11-16T07:39:50.521Z,75.2857
2022-11-16T07:40:50.552Z,75.3571
2022-11-16T07:41:50.579Z,75.3571
2022-11-16T07:42:50.612Z,75.3571
2022-11-16T07:43:53.242Z,75.3571
2022-11-16T07:44:50.679Z,75.3571
2022-11-16T07:45:50.697Z,75.3571
2022-11-16T07:46:50.743Z,75.3571
2022-11-16T07:47:50.759Z,75.4286
2022-11-16T07:48:50.800Z,75.3571
2022-11-16T07:49:50.823Z,75.3571
2022-11-16T07:50:50.846Z,75.2857
2022-11-16T07:51:50.876Z,75.2857
2022-11-16T07:52:50.909Z,75.2143
2022-11-16T07:53:50.939Z,75.2143
2022-11-16T07:54:50.970Z,75.2857
2022-11-16T07:55:50.997Z,75.2857
2022-11-16T07:56:52.047Z,75.3571
2022-11-16T07:57:53.428Z,75.4286
2022-11-16T07:58:51.097Z,75.4286
2022-11-16T07:59:51.131Z,75.5
2022-11-16T08:00:51.165Z,75.5
2022-11-16T08:01:51.350Z,75.5714
2022-11-16T08:02:51.220Z,75.5714
2022-11-16T08:03:51.246Z,75.6429
2022-11-16T08:04:51.279Z,75.5714
2022-11-16T08:05:51.307Z,75.6429
2022-11-16T08:06:51.458Z,75.6429
2022-11-16T08:07:51.358Z,75.6429
2022-11-16T08:08:56.683Z,75.7143
2022-11-16T08:09:51.511Z,75.7143
2022-11-16T08:10:51.462Z,75.7143
2022-11-16T08:11:51.511Z,75.7143
2022-11-16T08:12:51.531Z,75.7857
2022-11-16T08:13:51.554Z,75.7143
2022-11-16T08:14:51.590Z,75.7857
2022-11-16T08:15:51.625Z,75.7143
2022-11-16T08:16:51.650Z,75.7857
2022-11-16T08:17:51.685Z,75.7857
2022-11-16T08:18:51.724Z,75.7857
2022-11-16T08:19:51.744Z,75.7857
2022-11-16T08:20:51.788Z,75.7143
2022-11-16T08:21:51.806Z,75.7143
2022-11-16T08:22:51.824Z,75.7857
2022-11-16T08:23:57.910Z,75.7857
2022-11-16T08:24:51.921Z,75.8571
2022-11-16T08:25:51.909Z,75.7857
2022-11-16T08:26:51.965Z,75.7857
2022-11-16T08:27:51.972Z,75.8571
2022-11-16T08:28:52.006Z,75.8571
2022-11-16T08:29:52.035Z,75.9286
2022-11-16T08:30:53.919Z,75.8571
2022-11-16T08:31:52.095Z,75.9286
2022-11-16T08:32:52.129Z,76
2022-11-16T08:33:52.161Z,76.0714
2022-11-16T08:34:52.189Z,76.0714
2022-11-16T08:35:52.220Z,76.0714
2022-11-16T08:36:52.255Z,76.0714
2022-11-16T08:37:52.293Z,76.0714
2022-11-16T08:38:52.308Z,76.1429
2022-11-16T08:39:52.343Z,76.0714
2022-11-16T08:40:52.387Z,76.0714
2022-11-16T08:41:52.407Z,75.9286
2022-11-16T08:42:52.457Z,75.9286
2022-11-16T08:43:52.470Z,75.8571
2022-11-16T08:44:52.494Z,75.8571
2022-11-16T08:45:52.515Z,75.9286
2022-11-16T08:46:52.541Z,75.9286
2022-11-16T08:48:03.252Z,76
2022-11-16T08:48:52.605Z,76
2022-11-16T08:49:52.643Z,76
2022-11-16T08:51:15.828Z,75.9286
2022-11-16T08:51:52.702Z,75.9286
2022-11-16T08:52:52.725Z,75.9286
2022-11-16T08:53:52.760Z,75.9286
2022-11-16T08:54:52.786Z,76
2022-11-16T08:55:52.815Z,76
2022-11-16T08:56:52.844Z,76
2022-11-16T08:57:52.879Z,76
2022-11-16T08:58:58.125Z,75.9286
2022-11-16T08:59:52.947Z,75.9286
2022-11-16T09:00:52.977Z,75.8571
2022-11-16T09:01:53.084Z,75.7857
2022-11-16T09:02:53.032Z,75.7857
2022-11-16T09:03:53.060Z,75.7143
2022-11-16T09:04:53.098Z,75.7857
2022-11-16T09:05:53.125Z,75.6429
2022-11-16T09:06:53.258Z,75.5
2022-11-16T09:07:53.181Z,75.4286
2022-11-16T09:08:53.230Z,75.4286
2022-11-16T09:09:53.260Z,75.3571
2022-11-16T09:10:53.296Z,75.3571
2022-11-16T09:11:53.330Z,75.3571
2022-11-16T09:12:53.349Z,75.3571
2022-11-16T09:13:53.379Z,75.2857
2022-11-16T09:14:53.401Z,75.2143
2022-11-16T09:15:53.433Z,75
2022-11-16T09:16:53.471Z,75
2022-11-16T09:17:53.492Z,74.9286
2022-11-16T09:18:53.518Z,74.9286
2022-11-16T09:19:53.545Z,75
2022-11-16T09:20:53.572Z,75
2022-11-16T09:21:53.601Z,74.9286
2022-11-16T09:22:53.632Z,74.7857
2022-11-16T09:23:53.659Z,74.7857
2022-11-16T09:24:53.694Z,74.7857
2022-11-16T09:25:53.737Z,74.7857
2022-11-16T09:26:53.762Z,74.7143
2022-11-16T09:27:53.790Z,74.6429
2022-11-16T09:28:53.824Z,74.5714
2022-11-16T09:29:53.848Z,74.5
2022-11-16T09:30:53.885Z,74.5
2022-11-16T09:31:53.923Z,74.5
2022-11-16T09:32:53.945Z,74.5714
2022-11-16T09:33:53.978Z,74.5714
2022-11-16T09:34:54.007Z,74.5714
2022-11-16T09:35:54.032Z,74.5714
2022-11-16T09:36:54.050Z,74.5714
2022-11-16T09:37:54.092Z,74.6429
2022-11-16T09:39:28.968Z,74.5714
2022-11-16T09:39:54.156Z,74.5
2022-11-16T09:40:54.192Z,74.4286
2022-11-16T09:41:54.218Z,74.4286
2022-11-16T09:42:54.259Z,74.2143
2022-11-16T09:43:54.290Z,74.0714
2022-11-16T09:44:54.325Z,74
2022-11-16T09:45:54.373Z,73.9286
2022-11-16T09:46:54.412Z,73.9286
2022-11-16T09:47:54.445Z,73.8571
2022-11-16T09:48:54.476Z,73.8571
2022-11-16T09:49:59.862Z,73.8571
2022-11-16T09:50:54.532Z,73.8571
2022-11-16T09:51:54.567Z,73.8571
2022-11-16T09:52:54.598Z,73.9286
2022-11-16T09:53:54.639Z,73.9286
2022-11-16T09:54:54.662Z,73.8571
2022-11-16T09:55:54.699Z,73.7857
2022-11-16T09:56:54.725Z,73.7143
2022-11-16T09:57:54.765Z,73.5714
2022-11-16T09:58:54.798Z,73.4286
2022-11-16T09:59:54.825Z,73.4286
2022-11-16T10:00:54.907Z,73.3571
2022-11-16T10:01:54.883Z,73.2857
2022-11-16T10:02:54.916Z,73.2143
2022-11-16T10:03:54.950Z,73.2143
2022-11-16T10:04:58.159Z,73.3571
2022-11-16T10:05:55.007Z,73.4286
2022-11-16T10:06:55.083Z,73.3571
2022-11-16T10:07:55.084Z,73.3571
2022-11-16T10:08:55.101Z,73.2143
2022-11-16T10:09:55.134Z,73.1429
2022-11-16T10:10:55.170Z,73.0714
2022-11-16T10:11:55.210Z,72.8571
2022-11-16T10:12:55.237Z,72.9286
2022-11-16T10:13:57.047Z,72.7857
2022-11-16T10:14:55.293Z,72.6429
2022-11-16T10:15:55.321Z,72.4286
2022-11-16T10:16:55.342Z,72.4286
2022-11-16T10:17:55.379Z,72.2857
2022-11-16T10:18:55.418Z,72.2857
2022-11-16T10:19:55.456Z,72.0714
2022-11-16T10:20:55.468Z,71.9286
2022-11-16T10:21:55.497Z,71.9286
2022-11-16T10:22:55.537Z,71.8571
2022-11-16T10:23:55.564Z,71.8571
2022-11-16T10:24:55.596Z,71.7857
2022-11-16T10:25:55.622Z,71.8571
2022-11-16T10:26:55.654Z,71.7857
2022-11-16T10:27:55.684Z,71.7143
2022-11-16T10:28:55.718Z,71.6429
2022-11-16T10:29:55.750Z,71.4286
2022-11-16T10:30:55.786Z,71.2857
2022-11-16T10:31:55.813Z,71.2143
2022-11-16T10:32:55.842Z,71.2143
2022-11-16T10:33:55.873Z,71.2143
2022-11-16T10:34:55.897Z,71.2857
2022-11-16T10:35:55.921Z,71.2857
2022-11-16T10:36:55.956Z,71.2857
2022-11-16T10:37:55.984Z,71.3571
2022-11-16T10:38:56.022Z,71.4286
2022-11-16T10:39:56.052Z,71.4286
2022-11-16T10:40:56.083Z,71.3571
2022-11-16T10:41:56.119Z,71.2857
2022-11-16T10:42:56.140Z,71.0714
2022-11-16T10:43:56.170Z,70.9286
2022-11-16T10:44:56.217Z,70.9286
2022-11-16T10:45:56.239Z,70.7857
2022-11-16T10:46:56.266Z,70.7857
2022-11-16T10:47:56.299Z,70.8571
2022-11-16T10:48:56.328Z,71.0714
2022-11-16T10:49:56.368Z,71.2143
2022-11-16T10:50:56.409Z,71.2857
2022-11-16T10:51:56.439Z,71.1429
2022-11-16T10:52:56.466Z,71.1429
2022-11-16T10:53:56.502Z,71.0714
2022-11-16T10:54:56.530Z,70.9286
2022-11-16T10:55:56.567Z,70.9286
2022-11-16T10:56:56.595Z,70.8571
2022-11-16T10:57:56.628Z,70.9286
2022-11-16T10:58:56.659Z,70.8571
2022-11-16T10:59:56.694Z,70.8571
2022-11-16T11:00:56.798Z,70.9286
2022-11-16T11:01:56.767Z,70.8571
2022-11-16T11:02:56.796Z,70.8571
2022-11-16T11:03:56.834Z,70.9286
2022-11-16T11:04:56.876Z,70.8571
2022-11-16T11:05:56.904Z,70.9286
2022-11-16T11:06:57.021Z,71
2022-11-16T11:07:59.692Z,71.1429
2022-11-16T11:08:57.010Z,71.1429
2022-11-16T11:09:57.043Z,71.0714
2022-11-16T11:10:57.070Z,71.0714
2022-11-16T11:11:57.092Z,71.0714
2022-11-16T11:12:57.126Z,71.0714
2022-11-16T11:13:57.158Z,71.0714
2022-11-16T11:14:57.187Z,71
2022-11-16T11:15:57.218Z,71
2022-11-16T11:16:57.260Z,71.0714
2022-11-16T11:17:57.298Z,71.1429
2022-11-16T11:18:57.328Z,71.0714
2022-11-16T11:19:57.364Z,71.1429
2022-11-16T11:20:57.391Z,71.1429
2022-11-16T11:21:57.429Z,71.1429
2022-11-16T11:22:57.460Z,71.0714
2022-11-16T11:24:16.136Z,71.1429
2022-11-16T11:24:57.516Z,71.0714
2022-11-16T11:25:57.550Z,71
2022-11-16T11:26:57.585Z,71.0714
2022-11-16T11:27:57.615Z,71
2022-11-16T11:28:57.653Z,70.9286
2022-11-16T11:29:57.676Z,70.8571
2022-11-16T11:30:57.728Z,70.7857
2022-11-16T11:31:57.743Z,70.7143
2022-11-16T11:32:57.762Z,70.7143
2022-11-16T11:33:57.793Z,70.6429
2022-11-16T11:34:57.825Z,70.6429
2022-11-16T11:35:57.858Z,70.5714
2022-11-16T11:36:57.889Z,70.6429
2022-11-16T11:37:57.919Z,70.6429
2022-11-16T11:38:57.979Z,70.7143
2022-11-16T11:39:57.971Z,70.5714
2022-11-16T11:40:58.002Z,70.5714
2022-11-16T11:41:58.034Z,70.5714
2022-11-16T11:42:58.074Z,70.6429
2022-11-16T11:43:58.100Z,70.5
2022-11-16T11:44:58.151Z,70.3571
2022-11-16T11:45:58.164Z,70.3571
2022-11-16T11:47:35.583Z,70.4286
2022-11-16T11:47:59.406Z,70.3571
2022-11-16T11:48:58.258Z,70.3571
2022-11-16T11:49:58.289Z,70.2857
2022-11-16T11:50:58.335Z,70.2143
2022-11-16T11:51:58.354Z,70.2143
2022-11-16T11:52:58.390Z,70.2143
2022-11-16T11:53:58.422Z,70
2022-11-16T11:54:58.449Z,69.7857
2022-11-16T11:55:58.477Z,69.7143
2022-11-16T11:56:58.490Z,69.7143
2022-11-16T11:57:58.527Z,69.7143
2022-11-16T11:58:58.555Z,69.7857
2022-11-16T11:59:58.581Z,69.8571
2022-11-16T12:00:58.604Z,69.8571
2022-11-16T12:01:58.630Z,69.7143
2022-11-16T12:02:58.687Z,69.7857
2022-11-16T12:03:58.681Z,69.7857
2022-11-16T12:04:58.721Z,69.8571
2022-11-16T12:05:58.753Z,69.7143
2022-11-16T12:06:58.902Z,69.7143
2022-11-16T12:07:58.832Z,69.6429
2022-11-16T12:08:58.864Z,69.6429
2022-11-16T12:09:58.874Z,69.7143
2022-11-16T12:10:58.904Z,69.7857
2022-11-16T12:11:58.945Z,69.7857
2022-11-16T12:12:58.973Z,69.8571
2022-11-16T12:13:59.000Z,69.7857
2022-11-16T12:14:59.050Z,69.7857
2022-11-16T12:15:59.064Z,69.8571